Time;durP1;ratioP1;P1;durP2;ratioP2;P2;SDS_P1;SDS_P2;PMS_P1;PMS_P2;Temp;Humidity;BMP_temperature;BMP_pressure;BME280_temperature;BME280_humidity;BME280_pressure;Samples;Min_cycle;Max_cycle;Signal;HPM_P1;HPM_P2
2021/12/24 00:01:51;;;;;;;6.80;4.42;;;;;;;5.29;41.30;102057.58;1771435;80;21033;-51
2021/12/24 00:04:18;;;;;;;7.53;4.10;;;;;;;5.31;41.48;102050.74;1772253;80;21057;-51
2021/12/24 00:06:46;;;;;;;7.60;4.65;;;;;;;5.33;41.56;102050.36;1772253;80;20971;-51
2021/12/24 00:09:21;;;;;;;5.75;4.17;;;;;;;5.35;41.87;102048.27;1770722;80;21049;-51
2021/12/24 00:11:43;;;;;;;4.67;3.87;;;;;;;5.40;42.24;102043.20;1764317;80;21027;-51
2021/12/24 00:14:10;;;;;;;6.70;4.42;;;;;;;5.43;42.71;102043.23;1769092;80;20952;-51
2021/12/24 00:16:42;;;;;;;4.62;3.85;;;;;;;5.44;42.25;102031.64;1769392;80;21037;-51
2021/12/24 00:35:40;;;;;;;5.75;4.33;;;;;;;5.64;43.79;101984.27;1768594;80;21010;-50
2021/12/24 00:38:08;;;;;;;5.87;4.10;;;;;;;5.67;44.10;101979.14;1771121;80;21008;-53
2021/12/24 00:40:43;;;;;;;6.87;4.25;;;;;;;5.70;44.21;101971.46;1771048;80;21034;-50
2021/12/24 00:43:11;;;;;;;5.17;4.05;;;;;;;5.72;44.20;101955.16;1775145;80;20999;-51
2021/12/24 00:45:45;;;;;;;5.15;4.00;;;;;;;5.73;44.50;101949.13;1774496;80;21030;-51
2021/12/24 00:48:16;;;;;;;4.83;4.00;;;;;;;5.75;44.65;101941.40;1775272;80;21018;-52
2021/12/24 00:56:08;;;;;;;7.15;4.05;;;;;;;5.83;44.69;101916.59;1773326;80;21030;-50
2021/12/24 00:58:35;;;;;;;5.45;3.72;;;;;;;5.85;44.91;101914.94;1762288;80;20994;-51
2021/12/24 01:01:02;;;;;;;7.10;3.98;;;;;;;5.87;44.82;101913.25;1775355;80;21034;-50
2021/12/24 01:03:29;;;;;;;6.30;3.50;;;;;;;5.89;45.03;101901.23;1770573;80;21470;-51
2021/12/24 01:05:55;;;;;;;7.08;4.37;;;;;;;5.92;45.33;101893.50;1775325;80;21545;-50
2021/12/24 01:08:24;;;;;;;6.03;3.70;;;;;;;5.95;45.56;101896.16;1775223;80;21022;-50
2021/12/24 01:10:57;;;;;;;5.42;3.83;;;;;;;6.00;46.27;101891.91;1773277;80;21106;-50
2021/12/24 01:13:25;;;;;;;7.42;4.33;;;;;;;6.05;45.95;101877.35;1768288;80;21050;-50
2021/12/24 01:15:59;;;;;;;4.92;3.00;;;;;;;6.09;45.57;101876.55;1768565;80;21061;-50
2021/12/24 01:21:05;;;;;;;4.62;3.70;;;;;;;6.17;43.71;101864.59;1675816;84;21015;-50
2021/12/24 01:26:12;;;;;;;6.62;3.70;;;;;;;6.21;42.54;101852.16;1685972;84;21609;-51
2021/12/24 01:28:49;;;;;;;3.87;3.05;;;;;;;6.21;41.98;101844.41;1668828;84;21048;-50
2021/12/24 01:39:51;;;;;;;4.22;3.70;;;;;;;6.17;41.11;101829.71;1682093;84;21045;-50
2021/12/24 01:44:54;;;;;;;5.97;3.47;;;;;;;6.15;40.71;101813.73;1661489;84;21093;-52
2021/12/24 01:47:21;;;;;;;3.62;2.98;;;;;;;6.12;40.57;101808.09;1681639;84;21120;-51
2021/12/24 01:49:47;;;;;;;4.05;3.37;;;;;;;6.10;40.42;101804.62;1688669;84;20989;-50
2021/12/24 01:52:16;;;;;;;4.53;3.50;;;;;;;6.08;40.29;101793.85;1677874;84;21565;-50
2021/12/24 01:54:45;;;;;;;6.72;3.33;;;;;;;6.06;40.19;101784.77;1689072;84;21018;-50
2021/12/24 01:57:12;;;;;;;4.42;3.52;;;;;;;6.07;40.07;101776.59;1680470;84;21053;-51
2021/12/24 01:59:40;;;;;;;3.95;3.37;;;;;;;6.05;40.03;101759.80;1692720;84;21002;-51
2021/12/24 02:02:09;;;;;;;3.27;2.98;;;;;;;6.04;39.93;101753.33;1689586;84;21045;-50
2021/12/24 02:04:35;;;;;;;3.52;3.20;;;;;;;6.02;39.91;101748.11;1683110;84;21057;-50
2021/12/24 02:07:03;;;;;;;4.42;3.45;;;;;;;6.01;39.82;101741.23;1679730;84;21085;-50
2021/12/24 02:09:30;;;;;;;4.37;3.05;;;;;;;6.01;39.84;101730.89;1682582;84;21045;-50
2021/12/24 02:11:56;;;;;;;5.97;3.70;;;;;;;6.01;39.79;101723.56;1662551;84;21137;-50
2021/12/24 02:14:31;;;;;;;4.75;3.15;;;;;;;6.01;39.77;101718.39;1685113;84;21037;-50
2021/12/24 02:17:21;;;;;;;3.92;3.22;;;;;;;5.99;39.81;101715.80;1693801;80;20966;-52
2021/12/24 02:30:40;;;;;;;5.78;3.60;;;;;;;5.94;40.01;101698.07;1770499;80;20995;-50
2021/12/24 02:33:08;;;;;;;4.30;3.40;;;;;;;5.94;40.09;101695.48;1777315;80;21069;-50
2021/12/24 02:35:35;;;;;;;3.67;3.20;;;;;;;5.93;40.20;101686.44;1764678;80;20986;-50
2021/12/24 02:38:02;;;;;;;3.30;3.00;;;;;;;5.93;40.25;101672.23;1772488;80;21494;-50
2021/12/24 02:40:28;;;;;;;4.85;3.33;;;;;;;5.92;40.19;101658.44;1774344;80;21482;-50
2021/12/24 02:42:56;;;;;;;5.10;3.75;;;;;;;5.93;40.10;101651.56;1775453;80;21506;-50
2021/12/24 02:45:24;;;;;;;4.47;2.90;;;;;;;5.93;40.06;101639.94;1774925;80;21497;-50
2021/12/24 02:48:14;;;;;;;4.47;3.42;;;;;;;5.92;40.05;101635.19;1772405;80;21006;-50
2021/12/24 02:55:37;;;;;;;3.50;3.20;;;;;;;5.93;39.88;101614.11;1777960;80;21494;-50
2021/12/24 02:58:05;;;;;;;5.25;3.15;;;;;;;5.90;39.91;101604.60;1761401;80;21002;-51
2021/12/24 03:00:32;;;;;;;6.80;3.67;;;;;;;5.91;39.84;101596.02;1772838;80;21120;-50
2021/12/24 03:02:58;;;;;;;6.78;3.37;;;;;;;5.91;39.79;101593.86;1773958;80;21054;-50
2021/12/24 03:05:25;;;;;;;5.22;3.50;;;;;;;5.93;39.76;101590.86;1774111;80;21062;-50
2021/12/24 03:07:54;;;;;;;4.53;3.40;;;;;;;5.94;39.64;101576.66;1775054;80;21569;-51
2021/12/24 03:10:21;;;;;;;6.20;3.37;;;;;;;5.93;39.69;101569.78;1774891;80;21033;-50
2021/12/24 03:12:51;;;;;;;4.30;3.50;;;;;;;5.93;39.76;101564.61;1772545;80;21070;-51
2021/12/24 03:15:18;;;;;;;5.83;3.27;;;;;;;5.95;39.89;101552.58;1772384;80;21482;-51
2021/12/24 03:17:50;;;;;;;4.40;2.72;;;;;;;5.96;40.11;101548.25;1771983;80;21025;-51
2021/12/24 03:20:13;;;;;;;10.85;3.33;;;;;;;5.95;41.24;101543.54;1767904;80;21002;-50
2021/12/24 03:25:10;;;;;;;7.50;3.27;;;;;;;5.98;42.56;101521.59;1764061;80;21058;-50
2021/12/24 03:27:37;;;;;;;4.55;2.87;;;;;;;6.02;42.49;101522.06;1764024;81;21034;-51
2021/12/24 03:30:07;;;;;;;6.33;2.90;;;;;;;6.06;42.86;101516.06;1763371;81;21026;-50
2021/12/24 03:32:34;;;;;;;5.47;2.60;;;;;;;6.12;42.80;101525.16;1763713;81;20995;-51
2021/12/24 03:35:02;;;;;;;6.12;3.52;;;;;;;6.18;42.79;101522.63;1760730;81;20994;-51
2021/12/24 03:37:28;;;;;;;5.90;3.05;;;;;;;6.25;43.19;101514.08;1766689;81;21038;-51
2021/12/24 03:39:55;;;;;;;4.15;2.98;;;;;;;6.32;43.54;101514.58;1764441;81;21081;-50
2021/12/24 03:42:21;;;;;;;6.67;2.90;;;;;;;6.37;43.31;101502.53;1765529;81;21043;-50
2021/12/24 03:44:57;;;;;;;7.10;2.75;;;;;;;6.42;43.12;101493.53;1743218;81;21058;-52
2021/12/24 03:47:19;;;;;;;4.42;2.70;;;;;;;6.45;43.31;101498.28;1764130;81;21050;-51
2021/12/24 03:50:03;;;;;;;6.60;3.33;;;;;;;6.49;43.51;101495.31;1758232;81;21030;-50
2021/12/24 03:55:05;;;;;;;6.87;3.05;;;;;;;6.56;43.73;101482.42;1753181;81;21029;-50
2021/12/24 03:57:37;;;;;;;6.28;3.77;;;;;;;6.59;43.38;101473.38;1762632;81;21002;-52
2021/12/24 04:00:31;;;;;;;7.25;3.22;;;;;;;6.62;43.15;101470.37;1712075;84;21015;-51
2021/12/24 04:03:02;;;;;;;5.35;3.15;;;;;;;6.65;43.57;101471.69;1657741;86;21074;-50
2021/12/24 04:05:44;;;;;;;4.03;2.72;;;;;;;6.66;43.12;101472.14;1656855;85;21042;-50
2021/12/24 04:08:30;;;;;;;5.25;3.05;;;;;;;6.67;42.49;101458.34;1657655;86;21523;-50
2021/12/24 04:11:12;;;;;;;3.55;2.98;;;;;;;6.68;42.24;101460.09;1658632;86;21095;-50
2021/12/24 04:13:39;;;;;;;4.30;3.10;;;;;;;6.66;42.16;101457.92;1657687;86;20971;-51
2021/12/24 04:16:06;;;;;;;5.45;3.87;;;;;;;6.64;42.14;101450.55;1656106;86;21059;-50
2021/12/24 04:18:45;;;;;;;5.28;3.33;;;;;;;6.63;42.09;101446.25;1657227;86;21110;-50
2021/12/24 04:26:38;;;;;;;5.97;4.00;;;;;;;6.61;42.15;101438.50;1654705;86;21621;-50
2021/12/24 04:29:05;;;;;;;8.88;3.72;;;;;;;6.60;42.40;101426.41;1657638;86;21546;-50
2021/12/24 04:34:19;;;;;;;4.35;3.92;;;;;;;6.59;42.39;101416.48;1549683;92;21098;-50
2021/12/24 04:37:19;;;;;;;6.92;4.17;;;;;;;6.60;42.38;101410.89;1550900;92;21050;-51
2021/12/24 05:03:43;;;;;;;5.65;3.40;;;;;;;6.69;42.83;101355.77;1534447;92;21088;-50
2021/12/24 05:08:52;;;;;;;3.70;3.17;;;;;;;6.72;42.05;101348.04;1516567;94;21584;-53
2021/12/24 05:11:18;;;;;;;3.40;3.05;;;;;;;6.72;41.47;101354.05;1521367;93;21072;-50
2021/12/24 05:13:46;;;;;;;5.58;3.50;;;;;;;6.72;41.08;101345.00;1527864;93;21052;-50
2021/12/24 05:21:45;;;;;;;5.67;3.50;;;;;;;6.71;40.57;101343.70;1400726;102;21177;-51
2021/12/24 05:24:18;;;;;;;5.90;3.80;;;;;;;6.69;40.62;101342.84;1392485;102;21202;-50
2021/12/24 05:26:49;;;;;;;5.28;3.75;;;;;;;6.67;40.64;101340.26;1392090;102;21184;-50
2021/12/24 05:29:16;;;;;;;6.10;4.15;;;;;;;6.66;40.68;101329.92;1349190;105;21643;-50
2021/12/24 05:31:43;;;;;;;5.03;3.65;;;;;;;6.66;40.72;101324.75;1367676;103;21594;-50
2021/12/24 05:34:10;;;;;;;7.00;4.60;;;;;;;6.64;40.79;101319.55;1368236;103;21178;-50
2021/12/24 05:36:36;;;;;;;6.78;4.40;;;;;;;6.63;40.88;101314.38;1368070;103;21232;-50
2021/12/24 05:39:04;;;;;;;6.25;4.33;;;;;;;6.61;40.98;101317.39;1374226;102;21189;-50
2021/12/24 05:41:32;;;;;;;7.55;4.70;;;;;;;6.56;41.20;101311.77;1407198;101;21140;-50
2021/12/24 05:44:02;;;;;;;7.00;4.65;;;;;;;6.56;41.29;101310.48;1407595;102;21109;-51
2021/12/24 05:46:28;;;;;;;5.50;4.47;;;;;;;6.54;41.35;101304.86;1446466;97;21226;-50
2021/12/24 05:48:56;;;;;;;5.97;4.70;;;;;;;6.52;41.39;101304.86;1476397;96;21604;-51
2021/12/24 05:51:24;;;;;;;5.17;4.33;;;;;;;6.52;41.47;101297.11;1473613;97;21140;-50
2021/12/24 05:54:01;;;;;;;6.03;4.62;;;;;;;6.49;41.54;101298.37;1490569;94;21085;-50
2021/12/24 05:56:30;;;;;;;6.03;4.03;;;;;;;6.48;41.60;101294.50;1552905;90;21609;-51
2021/12/24 05:58:58;;;;;;;8.53;5.33;;;;;;;6.49;41.64;101291.91;1598029;86;21082;-51
2021/12/24 06:01:25;;;;;;;6.72;4.53;;;;;;;6.48;41.60;101291.92;1658751;86;21041;-51
2021/12/24 06:03:51;;;;;;;6.55;4.30;;;;;;;6.46;41.67;101286.75;1658170;86;21085;-50
2021/12/24 06:06:17;;;;;;;6.05;4.65;;;;;;;6.45;41.57;101281.13;1658666;86;21010;-50
2021/12/24 06:08:44;;;;;;;4.83;3.83;;;;;;;6.45;41.38;101282.42;1655878;86;21034;-51
2021/12/24 06:11:10;;;;;;;4.95;4.50;;;;;;;6.44;41.31;101282.01;1658448;86;21042;-50
2021/12/24 06:13:37;;;;;;;6.17;4.72;;;;;;;6.42;41.30;101279.84;1658462;86;21023;-50
2021/12/24 06:16:06;;;;;;;4.72;4.22;;;;;;;6.41;41.17;101278.11;1658788;86;21694;-50
2021/12/24 06:18:35;;;;;;;6.25;4.05;;;;;;;6.41;41.16;101274.64;1658548;86;21051;-51
2021/12/24 06:21:03;;;;;;;5.90;4.50;;;;;;;6.41;41.26;101284.98;1658771;86;21125;-50
2021/12/24 06:23:30;;;;;;;6.87;4.10;;;;;;;6.40;41.18;101279.40;1658572;86;21050;-52
2021/12/24 06:25:58;;;;;;;4.58;3.98;;;;;;;6.40;41.06;101273.80;1706693;80;21050;-50
2021/12/24 06:28:25;;;;;;;5.47;4.25;;;;;;;6.41;40.91;101279.39;1772383;80;20990;-50
2021/12/24 06:30:52;;;;;;;8.63;5.08;;;;;;;6.42;40.64;101278.97;1775042;80;21010;-50
2021/12/24 06:33:19;;;;;;;5.75;4.10;;;;;;;6.42;40.55;101270.80;1773894;80;21525;-50
2021/12/24 06:35:45;;;;;;;8.10;4.87;;;;;;;6.44;40.39;101265.20;1772559;80;21556;-50
2021/12/24 06:38:14;;;;;;;11.48;5.75;;;;;;;6.46;40.37;101262.61;1734874;82;21102;-50
2021/12/24 06:40:41;;;;;;;8.53;6.00;;;;;;;6.49;40.44;101262.19;1731477;82;21014;-50
2021/12/24 06:43:07;;;;;;;8.08;5.65;;;;;;;6.51;40.51;101268.67;1738117;82;21031;-50
2021/12/24 06:45:34;;;;;;;7.40;6.25;;;;;;;6.52;40.55;101266.09;1734440;82;21030;-51
2021/12/24 06:48:01;;;;;;;5.65;4.78;;;;;;;6.53;40.54;101254.87;1721207;82;21538;-50
2021/12/24 06:50:28;;;;;;;6.87;4.85;;;;;;;6.54;40.51;101260.48;1734626;82;21017;-50
2021/12/24 06:52:55;;;;;;;8.33;5.53;;;;;;;6.54;40.37;101266.95;1733192;82;21042;-50
2021/12/24 06:55:21;;;;;;;6.33;4.75;;;;;;;6.52;40.39;101260.91;1737400;82;20971;-50
2021/12/24 06:57:49;;;;;;;9.65;6.55;;;;;;;6.53;40.36;101244.52;1735682;82;21002;-51
2021/12/24 07:00:19;;;;;;;7.30;5.58;;;;;;;6.54;40.38;101246.27;1732947;82;21515;-50
2021/12/24 07:02:46;;;;;;;7.62;6.45;;;;;;;6.55;40.39;101247.98;1732748;82;21030;-50
2021/12/24 07:05:13;;;;;;;7.80;5.40;;;;;;;6.55;40.42;101248.44;1732692;82;21031;-50
2021/12/24 07:07:39;;;;;;;7.90;6.28;;;;;;;6.56;40.50;101244.55;1733061;82;21479;-50
2021/12/24 07:10:06;;;;;;;7.28;5.20;;;;;;;6.57;40.58;101238.50;1767133;80;20962;-50
2021/12/24 07:12:33;;;;;;;6.35;4.70;;;;;;;6.57;40.59;101232.04;1781765;80;20943;-50
2021/12/24 07:15:00;;;;;;;5.60;4.03;;;;;;;6.58;40.62;101222.14;1775079;80;21516;-51
2021/12/24 07:17:27;;;;;;;4.37;3.65;;;;;;;6.58;40.56;101221.28;1773443;80;21486;-50
2021/12/24 07:19:53;;;;;;;6.28;4.62;;;;;;;6.56;40.50;101209.64;1772915;80;21575;-50
2021/12/24 07:22:20;;;;;;;8.38;6.72;;;;;;;6.56;40.49;101213.52;1773885;80;21037;-50
2021/12/24 07:24:46;;;;;;;8.35;4.95;;;;;;;6.55;40.37;101213.08;1775067;80;20998;-50
2021/12/24 07:27:13;;;;;;;7.78;4.50;;;;;;;6.55;40.25;101198.02;1766672;81;21554;-50
2021/12/24 07:29:39;;;;;;;7.60;5.40;;;;;;;6.55;40.17;101196.27;1764357;81;21061;-50
2021/12/24 07:32:07;;;;;;;6.17;4.90;;;;;;;6.55;40.15;101196.27;1763479;81;21030;-50
2021/12/24 07:34:33;;;;;;;6.17;4.62;;;;;;;6.56;40.22;101182.50;1763512;81;21019;-50
2021/12/24 07:37:00;;;;;;;8.35;4.10;;;;;;;6.56;40.60;101169.57;1763652;81;21058;-51
2021/12/24 07:39:27;;;;;;;8.50;4.25;;;;;;;6.57;41.58;101157.06;1763932;81;20990;-50
2021/12/24 07:41:54;;;;;;;9.25;4.67;;;;;;;6.59;42.41;101150.62;1770937;81;21097;-51
2021/12/24 07:44:20;;;;;;;9.03;4.30;;;;;;;6.61;43.02;101154.48;1762695;81;20963;-50
2021/12/24 07:46:51;;;;;;;7.33;4.05;;;;;;;6.63;42.83;101159.23;1758977;81;21097;-50
2021/12/24 07:52:08;;;;;;;9.23;3.85;;;;;;;6.67;42.70;101133.38;1763825;81;21018;-50
2021/12/24 07:54:29;;;;;;;5.90;3.85;;;;;;;6.70;42.42;101131.23;1759593;81;21038;-50
2021/12/24 07:56:56;;;;;;;4.97;3.60;;;;;;;6.72;41.99;101125.63;1759835;80;21057;-50
2021/12/24 07:59:22;;;;;;;6.15;4.12;;;;;;;6.72;41.30;101121.30;1763362;81;20947;-50
2021/12/24 08:01:49;;;;;;;6.22;4.10;;;;;;;6.76;40.93;101122.18;1756515;81;21023;-51
2021/12/24 08:04:16;;;;;;;6.70;4.65;;;;;;;6.79;40.70;101130.79;1735992;81;20970;-50
2021/12/24 08:06:43;;;;;;;7.92;5.22;;;;;;;6.83;40.67;101125.17;1764309;81;21084;-50
2021/12/24 08:09:11;;;;;;;6.40;4.15;;;;;;;6.88;40.84;101126.05;1765274;81;21038;-50
2021/12/24 08:11:37;;;;;;;6.08;4.47;;;;;;;6.90;41.29;101117.86;1765939;81;21018;-51
2021/12/24 08:14:06;;;;;;;6.30;4.10;;;;;;;6.94;41.66;101113.11;1767011;81;20947;-50
2021/12/24 08:16:34;;;;;;;5.97;4.47;;;;;;;6.95;42.35;101100.58;1766920;81;21026;-51
2021/12/24 08:19:02;;;;;;;9.03;4.42;;;;;;;6.94;42.95;101101.47;1764872;81;21038;-51
2021/12/24 08:21:30;;;;;;;5.87;3.72;;;;;;;6.94;43.43;101090.69;1763396;81;21042;-50
2021/12/24 08:23:57;;;;;;;4.92;4.03;;;;;;;6.95;43.87;101077.30;1763847;81;21022;-51
2021/12/24 08:26:23;;;;;;;6.72;4.35;;;;;;;6.97;43.88;101085.92;1768405;80;20998;-51
2021/12/24 08:28:50;;;;;;;5.55;4.10;;;;;;;6.97;44.06;101080.75;1772334;80;21034;-51
2021/12/24 08:31:17;;;;;;;5.05;3.83;;;;;;;6.96;44.35;101071.28;1773931;80;21025;-50
2021/12/24 08:33:45;;;;;;;4.75;3.90;;;;;;;6.96;44.33;101063.52;1775012;80;21015;-51
2021/12/24 08:36:11;;;;;;;5.17;3.85;;;;;;;6.96;44.17;101075.16;1774860;80;21033;-50
2021/12/24 08:38:40;;;;;;;5.22;3.47;;;;;;;6.94;43.53;101049.30;1772144;80;21045;-51
2021/12/24 08:41:07;;;;;;;4.17;3.33;;;;;;;6.93;43.15;101030.75;1773367;80;21037;-52
2021/12/24 08:43:33;;;;;;;4.95;4.00;;;;;;;6.95;42.85;101033.32;1761300;80;21010;-52
2021/12/24 08:46:00;;;;;;;4.95;3.95;;;;;;;6.97;43.03;101034.17;1773916;80;21046;-52
2021/12/24 08:48:27;;;;;;;4.42;4.03;;;;;;;6.98;43.57;101035.91;1772254;80;21037;-53
2021/12/24 08:50:53;;;;;;;4.70;4.30;;;;;;;6.98;44.19;101026.86;1774342;80;21042;-54
2021/12/24 08:53:21;;;;;;;7.45;4.72;;;;;;;6.97;45.12;101029.00;1769834;80;20998;-50
2021/12/24 08:55:47;;;;;;;7.62;5.25;;;;;;;6.94;46.08;101018.68;1777891;80;20987;-53
2021/12/24 08:58:14;;;;;;;6.17;4.87;;;;;;;6.91;46.93;101010.48;1761518;80;21036;-53
2021/12/24 09:00:41;;;;;;;5.47;4.97;;;;;;;6.86;47.54;101008.79;1781249;80;21022;-53
2021/12/24 09:03:08;;;;;;;5.33;4.58;;;;;;;6.80;48.24;100999.75;1778993;80;21035;-53
2021/12/24 09:05:35;;;;;;;7.08;5.97;;;;;;;6.75;48.50;100989.41;1771720;80;21022;-54
2021/12/24 09:08:01;;;;;;;6.78;6.08;;;;;;;6.70;48.88;100987.72;1772249;80;21027;-53
2021/12/24 09:10:28;;;;;;;6.05;5.37;;;;;;;6.66;49.31;100978.25;1771658;80;20994;-54
2021/12/24 09:12:56;;;;;;;5.55;4.60;;;;;;;6.63;49.60;100967.89;1772219;80;20954;-54
2021/12/24 09:15:27;;;;;;;9.55;7.45;;;;;;;6.58;50.01;100957.56;1772745;80;21073;-53
2021/12/24 09:17:51;;;;;;;9.35;7.30;;;;;;;6.56;50.34;100953.69;1771397;80;20987;-53
2021/12/24 09:20:24;;;;;;;9.25;6.53;;;;;;;6.54;50.58;100941.20;1775110;80;21029;-53
2021/12/24 09:22:50;;;;;;;8.45;7.00;;;;;;;6.54;50.73;100930.86;1774205;80;21033;-53
2021/12/24 09:25:17;;;;;;;7.12;6.30;;;;;;;6.53;50.82;100923.95;1772523;80;21506;-53
2021/12/24 09:27:44;;;;;;;9.33;6.17;;;;;;;6.50;50.70;100914.94;1769046;81;21117;-55
2021/12/24 09:30:12;;;;;;;8.38;6.05;;;;;;;6.46;50.42;100909.34;1762037;81;21033;-53
2021/12/24 09:32:38;;;;;;;10.35;7.60;;;;;;;6.45;50.22;100904.19;1768917;81;21439;-53
2021/12/24 09:35:07;;;;;;;6.50;5.83;;;;;;;6.47;49.83;100903.30;1765605;81;21034;-53
2021/12/24 09:37:34;;;;;;;7.83;6.33;;;;;;;6.49;49.40;100900.27;1763489;81;20987;-53
2021/12/24 09:40:01;;;;;;;8.15;6.97;;;;;;;6.51;49.01;100892.53;1763691;81;21522;-52
2021/12/24 09:42:30;;;;;;;12.43;9.40;;;;;;;6.51;48.63;100889.49;1763672;81;21529;-53
2021/12/24 09:44:56;;;;;;;10.10;7.42;;;;;;;6.51;48.43;100889.49;1763809;81;21054;-52
2021/12/24 09:47:24;;;;;;;11.55;7.75;;;;;;;6.51;48.11;100879.61;1764583;81;21038;-52
2021/12/24 09:49:50;;;;;;;7.35;6.12;;;;;;;6.48;48.10;100873.14;1766888;81;21003;-53
2021/12/24 09:52:18;;;;;;;7.97;7.05;;;;;;;6.44;48.20;100868.42;1766956;81;21117;-52
2021/12/24 09:54:46;;;;;;;12.15;7.97;;;;;;;6.41;48.30;100864.55;1764647;81;21046;-53
2021/12/24 09:57:12;;;;;;;9.68;7.65;;;;;;;6.40;48.47;100862.84;1763866;81;21050;-53
2021/12/24 09:59:39;;;;;;;10.55;7.37;;;;;;;6.40;48.65;100862.84;1766398;81;21038;-53
2021/12/24 10:02:15;;;;;;;10.82;7.25;;;;;;;6.38;48.82;100860.69;1753100;81;20987;-52
2021/12/24 10:04:37;;;;;;;8.13;6.85;;;;;;;6.37;48.98;100842.16;1756913;81;21015;-52
2021/12/24 10:07:11;;;;;;;8.65;7.30;;;;;;;6.34;49.19;100836.15;1767021;81;20990;-53
2021/12/24 10:09:43;;;;;;;8.28;7.20;;;;;;;6.31;49.27;100818.92;1679129;84;21131;-53
2021/12/24 10:12:14;;;;;;;8.95;7.70;;;;;;;6.30;49.43;100821.52;1682141;84;21511;-53
2021/12/24 10:14:53;;;;;;;10.68;7.67;;;;;;;6.26;49.57;100815.52;1653118;85;21049;-53
2021/12/24 10:17:22;;;;;;;11.12;7.50;;;;;;;6.22;49.79;100803.44;1542517;91;21069;-53
2021/12/24 10:19:57;;;;;;;9.98;7.50;;;;;;;6.17;50.03;100784.52;1569213;89;21141;-53
2021/12/24 10:22:24;;;;;;;9.53;7.75;;;;;;;6.15;50.19;100778.93;1566923;90;21086;-55
2021/12/24 10:25:07;;;;;;;10.72;7.67;;;;;;;6.11;50.34;100776.80;1566600;91;21101;-53
2021/12/24 10:27:36;;;;;;;10.63;7.60;;;;;;;6.09;50.26;100763.03;1544947;92;21154;-52
2021/12/24 10:30:21;;;;;;;9.65;7.33;;;;;;;6.05;50.29;100756.16;1516852;94;21135;-53
2021/12/24 10:32:49;;;;;;;9.85;7.35;;;;;;;6.03;50.31;100741.09;1574074;90;21130;-53
2021/12/24 10:35:27;;;;;;;11.15;7.67;;;;;;;6.01;50.21;100732.49;1574012;90;21121;-53
2021/12/24 10:38:12;;;;;;;9.03;7.20;;;;;;;6.02;50.07;100723.86;1573865;90;21065;-52
2021/12/24 10:41:06;;;;;;;11.53;8.25;;;;;;;6.01;49.93;100727.33;1573907;90;21570;-52
2021/12/24 10:43:35;;;;;;;12.37;8.05;;;;;;;6.01;49.92;100720.88;1570182;91;21076;-52
2021/12/24 10:46:17;;;;;;;12.65;8.90;;;;;;;6.03;49.96;100708.81;1574989;90;21042;-52
2021/12/24 10:49:07;;;;;;;12.10;8.88;;;;;;;6.06;50.01;100715.70;1574110;90;21062;-52
2021/12/24 10:54:18;;;;;;;8.25;7.33;;;;;;;6.14;49.91;100694.10;1530216;90;21069;-52
2021/12/24 10:56:46;;;;;;;13.43;8.05;;;;;;;6.18;49.73;100682.88;1563024;90;21058;-52
2021/12/24 10:59:12;;;;;;;10.08;6.78;;;;;;;6.18;49.74;100675.13;1563906;92;21626;-52
2021/12/24 11:01:39;;;;;;;9.98;7.00;;;;;;;6.18;49.65;100673.84;1544137;92;21089;-53
2021/12/24 11:04:06;;;;;;;9.03;7.10;;;;;;;6.19;49.61;100663.95;1562955;90;21104;-52
2021/12/24 11:06:32;;;;;;;11.78;8.45;;;;;;;6.24;49.57;100662.21;1562468;91;21121;-52
2021/12/24 11:09:00;;;;;;;9.88;7.95;;;;;;;6.27;49.50;100657.01;1561563;90;21080;-53
2021/12/24 11:11:38;;;;;;;9.00;7.62;;;;;;;6.30;49.40;100650.97;1576193;90;21078;-52
2021/12/24 11:14:05;;;;;;;10.15;8.28;;;;;;;6.32;49.36;100655.27;1616755;87;21029;-51
2021/12/24 11:16:33;;;;;;;14.87;9.20;;;;;;;6.35;49.34;100641.45;1600901;87;21184;-51
2021/12/24 11:19:02;;;;;;;12.10;8.20;;;;;;;6.37;49.38;100632.83;1641903;87;21099;-51
2021/12/24 11:21:31;;;;;;;10.05;8.35;;;;;;;6.41;49.44;100629.34;1642759;86;21545;-51
2021/12/24 11:23:58;;;;;;;10.95;8.13;;;;;;;6.45;49.32;100628.45;1650703;87;21042;-51
2021/12/24 11:26:27;;;;;;;14.18;9.10;;;;;;;6.48;49.12;100627.16;1644387;86;21186;-51
2021/12/24 11:28:55;;;;;;;10.68;8.90;;;;;;;6.51;48.76;100631.00;1640604;87;21114;-51
2021/12/24 11:31:25;;;;;;;10.60;8.95;;;;;;;6.53;48.54;100621.50;1639092;87;21030;-51
2021/12/24 11:33:52;;;;;;;10.05;8.08;;;;;;;6.54;48.37;100610.31;1557284;91;21069;-51
2021/12/24 11:36:23;;;;;;;12.07;8.93;;;;;;;6.57;48.09;100610.27;1578715;90;21145;-51
2021/12/24 11:38:58;;;;;;;11.90;8.60;;;;;;;6.60;47.71;100606.81;1579744;90;21054;-51
2021/12/24 11:41:29;;;;;;;10.65;8.53;;;;;;;6.63;47.42;100605.94;1578536;90;21146;-52
2021/12/24 11:43:57;;;;;;;10.40;7.65;;;;;;;6.65;47.08;100602.47;1582599;90;21066;-51
2021/12/24 11:46:25;;;;;;;9.93;7.35;;;;;;;6.66;46.76;100600.75;1576764;90;21003;-51
2021/12/24 11:48:54;;;;;;;10.08;8.03;;;;;;;6.67;46.57;100597.28;1576987;90;21043;-52
2021/12/24 11:51:25;;;;;;;9.05;7.62;;;;;;;6.68;46.42;100596.42;1577286;90;21635;-51
2021/12/24 11:53:53;;;;;;;10.72;8.33;;;;;;;6.69;46.25;100583.48;1588918;85;21149;-51
2021/12/24 11:56:20;;;;;;;9.33;7.80;;;;;;;6.72;46.05;100574.84;1668713;85;21125;-51
2021/12/24 11:58:50;;;;;;;11.70;8.65;;;;;;;6.74;45.96;100571.34;1669117;85;21081;-51
2021/12/24 12:01:19;;;;;;;12.70;9.15;;;;;;;6.78;45.84;100570.91;1669896;85;21102;-51
2021/12/24 12:03:52;;;;;;;11.55;8.20;;;;;;;6.80;45.93;100563.98;1670464;85;21102;-51
2021/12/24 12:09:07;;;;;;;11.05;8.33;;;;;;;6.88;45.61;100578.99;1598991;89;21566;-51
2021/12/24 12:11:35;;;;;;;10.48;7.45;;;;;;;6.88;45.53;100564.77;1551020;92;21066;-51
2021/12/24 12:14:04;;;;;;;10.72;7.37;;;;;;;6.91;45.50;100568.60;1553197;92;21677;-51
2021/12/24 12:16:51;;;;;;;10.55;7.92;;;;;;;6.94;45.28;100563.41;1553149;92;21253;-51
2021/12/24 12:19:33;;;;;;;9.88;6.90;;;;;;;6.96;45.27;100557.36;1552971;92;21093;-51
2021/12/24 12:24:59;;;;;;;8.88;7.17;;;;;;;7.01;45.13;100536.59;1509784;95;21112;-51
2021/12/24 12:27:45;;;;;;;9.70;7.40;;;;;;;7.04;45.02;100518.47;1509033;95;21189;-51
2021/12/24 12:30:37;;;;;;;7.85;6.25;;;;;;;7.04;44.93;100514.58;1525211;93;21159;-51
2021/12/24 12:33:22;;;;;;;11.08;7.85;;;;;;;7.06;44.63;100511.55;1518239;93;21139;-51
2021/12/24 12:35:57;;;;;;;10.78;7.58;;;;;;;7.06;44.61;100511.11;1458596;97;21061;-51
2021/12/24 12:38:44;;;;;;;9.83;7.30;;;;;;;7.08;44.49;100508.50;1442813;98;21647;-51
2021/12/24 12:43:55;;;;;;;10.90;8.38;;;;;;;7.14;44.24;100516.19;1440548;98;21208;-50
2021/12/24 12:46:32;;;;;;;10.05;8.18;;;;;;;7.16;44.25;100513.14;1440712;98;21133;-51
2021/12/24 12:49:01;;;;;;;9.28;7.15;;;;;;;7.16;44.27;100514.44;1440749;98;21573;-52
2021/12/24 12:51:52;;;;;;;10.08;7.80;;;;;;;7.17;44.21;100510.53;1440686;98;21128;-51
2021/12/24 12:54:42;;;;;;;8.50;6.85;;;;;;;7.19;44.22;100515.71;1440622;98;21109;-51
2021/12/24 12:57:29;;;;;;;8.60;7.30;;;;;;;7.19;44.32;100519.13;1440875;100;21148;-51
2021/12/24 13:05:45;;;;;;;11.25;8.23;;;;;;;7.23;44.51;100512.21;1368888;104;21668;-51
2021/12/24 13:08:20;;;;;;;12.35;8.48;;;;;;;7.25;44.42;100493.64;1392496;100;21161;-51
2021/12/24 13:11:06;;;;;;;11.00;8.05;;;;;;;7.26;44.50;100496.20;1379676;104;21188;-51
2021/12/24 13:13:53;;;;;;;14.75;8.35;;;;;;;7.28;44.48;100500.05;1441146;99;21627;-51
2021/12/24 13:16:42;;;;;;;10.98;8.85;;;;;;;7.28;44.45;100507.81;1403127;101;21153;-51
2021/12/24 13:24:48;;;;;;;10.65;7.10;;;;;;;7.29;44.54;100492.73;1406947;100;21568;-51
2021/12/24 13:27:16;;;;;;;10.40;8.23;;;;;;;7.28;44.46;100487.11;1404865;101;21208;-51
2021/12/24 13:29:42;;;;;;;12.65;7.95;;;;;;;7.28;44.50;100484.53;1402918;100;21111;-51
2021/12/24 13:32:09;;;;;;;12.43;7.00;;;;;;;7.28;44.31;100479.35;1441575;98;21646;-51
2021/12/24 13:34:36;;;;;;;7.97;7.15;;;;;;;7.27;44.15;100480.24;1458011;98;21080;-52
2021/12/24 13:37:13;;;;;;;10.78;7.85;;;;;;;7.26;44.10;100474.20;1464532;98;21166;-51
2021/12/24 13:39:49;;;;;;;11.70;8.05;;;;;;;7.26;44.11;100472.05;1454632;98;21080;-51
2021/12/24 13:42:15;;;;;;;24.80;16.23;;;;;;;7.26;44.21;100474.63;1468720;96;21222;-51
2021/12/24 13:44:42;;;;;;;22.02;13.40;;;;;;;7.25;44.22;100475.06;1472885;97;21195;-51
2021/12/24 13:47:41;;;;;;;23.18;12.25;;;;;;;7.26;44.10;100462.98;1450007;99;21663;-51
2021/12/24 13:55:30;;;;;;;26.30;15.48;;;;;;;7.29;44.38;100483.67;1531512;93;21308;-51